sensor_id;sensor_type;location;lat;lon;timestamp;P1;durP1;ratioP1;P2;durP2;ratioP2
76073;SDS011;64776;42.636;24.358;2023-03-23T00:01:22;24.95;;;10.50;;
76073;SDS011;64776;42.636;24.358;2023-03-23T00:04:25;13.38;;;7.25;;
76073;SDS011;64776;42.636;24.358;2023-03-23T00:07:25;19.27;;;9.70;;
76073;SDS011;64776;42.636;24.358;2023-03-23T00:10:27;24.42;;;10.43;;
76073;SDS011;64776;42.636;24.358;2023-03-23T00:13:28;32.47;;;14.43;;
76073;SDS011;64776;42.636;24.358;2023-03-23T00:16:30;32.80;;;13.32;;
76073;SDS011;64776;42.636;24.358;2023-03-23T00:19:33;28.55;;;11.90;;
76073;SDS011;64776;42.636;24.358;2023-03-23T00:22:34;26.73;;;10.68;;
76073;SDS011;64776;42.636;24.358;2023-03-23T00:25:34;26.20;;;9.05;;
76073;SDS011;64776;42.636;24.358;2023-03-23T00:28:35;19.85;;;8.20;;
76073;SDS011;64776;42.636;24.358;2023-03-23T00:31:36;27.58;;;11.95;;
76073;SDS011;64776;42.636;24.358;2023-03-23T00:34:39;19.58;;;8.55;;
76073;SDS011;64776;42.636;24.358;2023-03-23T00:37:40;19.50;;;8.38;;
76073;SDS011;64776;42.636;24.358;2023-03-23T00:40:41;24.08;;;9.55;;
76073;SDS011;64776;42.636;24.358;2023-03-23T00:43:41;17.88;;;6.97;;
76073;SDS011;64776;42.636;24.358;2023-03-23T00:46:42;15.70;;;7.32;;
76073;SDS011;64776;42.636;24.358;2023-03-23T00:49:45;17.50;;;6.97;;
76073;SDS011;64776;42.636;24.358;2023-03-23T00:52:45;12.13;;;5.38;;
76073;SDS011;64776;42.636;24.358;2023-03-23T00:55:47;20.70;;;8.00;;
76073;SDS011;64776;42.636;24.358;2023-03-23T00:58:49;21.65;;;9.75;;
76073;SDS011;64776;42.636;24.358;2023-03-23T01:01:50;66.78;;;27.67;;
76073;SDS011;64776;42.636;24.358;2023-03-23T01:04:52;14.25;;;5.63;;
76073;SDS011;64776;42.636;24.358;2023-03-23T01:07:53;15.27;;;7.25;;
76073;SDS011;64776;42.636;24.358;2023-03-23T01:11:01;14.90;;;6.18;;
76073;SDS011;64776;42.636;24.358;2023-03-23T01:14:02;11.93;;;5.05;;
76073;SDS011;64776;42.636;24.358;2023-03-23T01:17:03;6.75;;;2.72;;
76073;SDS011;64776;42.636;24.358;2023-03-23T01:20:06;16.95;;;7.25;;
76073;SDS011;64776;42.636;24.358;2023-03-23T01:23:08;17.35;;;6.25;;
76073;SDS011;64776;42.636;24.358;2023-03-23T01:26:09;13.88;;;5.40;;
76073;SDS011;64776;42.636;24.358;2023-03-23T01:29:12;15.05;;;6.22;;
76073;SDS011;64776;42.636;24.358;2023-03-23T01:32:13;18.40;;;6.63;;
76073;SDS011;64776;42.636;24.358;2023-03-23T01:35:15;20.52;;;8.75;;
76073;SDS011;64776;42.636;24.358;2023-03-23T01:38:16;38.00;;;17.55;;
76073;SDS011;64776;42.636;24.358;2023-03-23T01:41:17;15.23;;;7.38;;
76073;SDS011;64776;42.636;24.358;2023-03-23T01:48:02;21.95;;;10.52;;
76073;SDS011;64776;42.636;24.358;2023-03-23T01:51:09;14.95;;;5.90;;
76073;SDS011;64776;42.636;24.358;2023-03-23T01:54:13;11.65;;;5.03;;
76073;SDS011;64776;42.636;24.358;2023-03-23T01:57:18;12.38;;;5.20;;
76073;SDS011;64776;42.636;24.358;2023-03-23T02:00:21;24.75;;;9.80;;
76073;SDS011;64776;42.636;24.358;2023-03-23T02:03:23;23.30;;;9.60;;
76073;SDS011;64776;42.636;24.358;2023-03-23T02:06:25;20.05;;;7.70;;
76073;SDS011;64776;42.636;24.358;2023-03-23T02:09:26;20.83;;;8.45;;
76073;SDS011;64776;42.636;24.358;2023-03-23T02:12:27;23.27;;;9.32;;
76073;SDS011;64776;42.636;24.358;2023-03-23T02:15:29;14.63;;;7.13;;
76073;SDS011;64776;42.636;24.358;2023-03-23T02:18:41;46.65;;;18.05;;
76073;SDS011;64776;42.636;24.358;2023-03-23T02:25:33;22.95;;;9.75;;
76073;SDS011;64776;42.636;24.358;2023-03-23T02:29:01;22.50;;;10.88;;
76073;SDS011;64776;42.636;24.358;2023-03-23T02:32:32;17.58;;;8.30;;
76073;SDS011;64776;42.636;24.358;2023-03-23T02:35:54;20.17;;;9.32;;
76073;SDS011;64776;42.636;24.358;2023-03-23T02:39:00;21.40;;;10.40;;
76073;SDS011;64776;42.636;24.358;2023-03-23T02:42:06;17.98;;;8.30;;
76073;SDS011;64776;42.636;24.358;2023-03-23T02:45:09;17.13;;;8.32;;
76073;SDS011;64776;42.636;24.358;2023-03-23T02:48:12;19.90;;;9.70;;
76073;SDS011;64776;42.636;24.358;2023-03-23T02:51:17;20.63;;;9.93;;
76073;SDS011;64776;42.636;24.358;2023-03-23T02:54:20;17.10;;;7.35;;
76073;SDS011;64776;42.636;24.358;2023-03-23T02:57:23;26.77;;;10.63;;
76073;SDS011;64776;42.636;24.358;2023-03-23T03:00:25;17.08;;;7.53;;
76073;SDS011;64776;42.636;24.358;2023-03-23T03:03:26;14.82;;;6.18;;
76073;SDS011;64776;42.636;24.358;2023-03-23T03:06:32;12.23;;;4.65;;
76073;SDS011;64776;42.636;24.358;2023-03-23T03:09:41;15.85;;;5.65;;
76073;SDS011;64776;42.636;24.358;2023-03-23T03:12:49;14.45;;;4.80;;
76073;SDS011;64776;42.636;24.358;2023-03-23T03:15:56;19.90;;;7.65;;
76073;SDS011;64776;42.636;24.358;2023-03-23T03:19:05;23.27;;;10.07;;
76073;SDS011;64776;42.636;24.358;2023-03-23T03:22:10;20.35;;;10.43;;
76073;SDS011;64776;42.636;24.358;2023-03-23T03:25:13;18.63;;;9.35;;
76073;SDS011;64776;42.636;24.358;2023-03-23T03:28:16;22.60;;;11.75;;
76073;SDS011;64776;42.636;24.358;2023-03-23T03:31:19;22.13;;;11.98;;
76073;SDS011;64776;42.636;24.358;2023-03-23T03:34:22;23.52;;;10.63;;
76073;SDS011;64776;42.636;24.358;2023-03-23T03:37:24;22.10;;;9.60;;
76073;SDS011;64776;42.636;24.358;2023-03-23T03:40:26;26.50;;;10.50;;
76073;SDS011;64776;42.636;24.358;2023-03-23T03:43:27;40.53;;;17.95;;
76073;SDS011;64776;42.636;24.358;2023-03-23T03:46:28;30.55;;;15.00;;
76073;SDS011;64776;42.636;24.358;2023-03-23T03:49:28;38.15;;;17.77;;
76073;SDS011;64776;42.636;24.358;2023-03-23T03:52:31;84.30;;;39.30;;
76073;SDS011;64776;42.636;24.358;2023-03-23T03:55:32;36.58;;;17.60;;
76073;SDS011;64776;42.636;24.358;2023-03-23T03:58:33;52.72;;;24.85;;
76073;SDS011;64776;42.636;24.358;2023-03-23T04:01:34;62.60;;;26.92;;
76073;SDS011;64776;42.636;24.358;2023-03-23T04:04:35;44.53;;;20.65;;
76073;SDS011;64776;42.636;24.358;2023-03-23T04:07:37;54.22;;;26.67;;
76073;SDS011;64776;42.636;24.358;2023-03-23T04:10:38;28.38;;;13.10;;
76073;SDS011;64776;42.636;24.358;2023-03-23T04:13:39;36.28;;;16.15;;
76073;SDS011;64776;42.636;24.358;2023-03-23T04:16:40;44.72;;;24.95;;
76073;SDS011;64776;42.636;24.358;2023-03-23T04:19:41;41.60;;;19.15;;
76073;SDS011;64776;42.636;24.358;2023-03-23T04:22:43;33.80;;;15.32;;
76073;SDS011;64776;42.636;24.358;2023-03-23T04:25:44;33.95;;;16.52;;
76073;SDS011;64776;42.636;24.358;2023-03-23T04:28:49;39.15;;;19.65;;
76073;SDS011;64776;42.636;24.358;2023-03-23T04:31:50;28.42;;;12.30;;
76073;SDS011;64776;42.636;24.358;2023-03-23T04:34:51;67.00;;;27.58;;
76073;SDS011;64776;42.636;24.358;2023-03-23T04:37:53;48.58;;;21.77;;
76073;SDS011;64776;42.636;24.358;2023-03-23T04:40:54;45.10;;;20.40;;
76073;SDS011;64776;42.636;24.358;2023-03-23T04:43:55;28.95;;;15.68;;
76073;SDS011;64776;42.636;24.358;2023-03-23T04:47:05;42.49;;;22.28;;
76073;SDS011;64776;42.636;24.358;2023-03-23T04:50:07;46.70;;;22.85;;
76073;SDS011;64776;42.636;24.358;2023-03-23T04:53:11;47.13;;;24.30;;
76073;SDS011;64776;42.636;24.358;2023-03-23T04:56:11;53.70;;;25.55;;
76073;SDS011;64776;42.636;24.358;2023-03-23T04:59:12;60.90;;;28.02;;
76073;SDS011;64776;42.636;24.358;2023-03-23T05:02:13;89.60;;;37.63;;
76073;SDS011;64776;42.636;24.358;2023-03-23T05:05:14;71.53;;;35.13;;
76073;SDS011;64776;42.636;24.358;2023-03-23T05:08:16;83.32;;;39.20;;
76073;SDS011;64776;42.636;24.358;2023-03-23T05:11:17;111.50;;;44.88;;
76073;SDS011;64776;42.636;24.358;2023-03-23T05:14:18;85.95;;;38.13;;
76073;SDS011;64776;42.636;24.358;2023-03-23T05:17:18;61.03;;;30.40;;
76073;SDS011;64776;42.636;24.358;2023-03-23T05:20:19;72.60;;;39.72;;
76073;SDS011;64776;42.636;24.358;2023-03-23T05:23:21;66.25;;;37.15;;
76073;SDS011;64776;42.636;24.358;2023-03-23T05:26:22;43.22;;;20.67;;
76073;SDS011;64776;42.636;24.358;2023-03-23T05:29:23;71.78;;;39.20;;
76073;SDS011;64776;42.636;24.358;2023-03-23T05:32:24;64.85;;;33.38;;
76073;SDS011;64776;42.636;24.358;2023-03-23T05:35:25;71.20;;;36.60;;
76073;SDS011;64776;42.636;24.358;2023-03-23T05:38:28;66.00;;;33.33;;
76073;SDS011;64776;42.636;24.358;2023-03-23T05:41:28;73.10;;;32.88;;
76073;SDS011;64776;42.636;24.358;2023-03-23T05:44:29;53.17;;;25.27;;
76073;SDS011;64776;42.636;24.358;2023-03-23T05:47:30;78.35;;;25.95;;
76073;SDS011;64776;42.636;24.358;2023-03-23T05:50:31;93.88;;;40.15;;
76073;SDS011;64776;42.636;24.358;2023-03-23T05:53:34;67.18;;;32.92;;
76073;SDS011;64776;42.636;24.358;2023-03-23T05:56:34;61.72;;;32.58;;
76073;SDS011;64776;42.636;24.358;2023-03-23T05:59:35;49.65;;;27.45;;
76073;SDS011;64776;42.636;24.358;2023-03-23T06:02:36;71.63;;;32.47;;
76073;SDS011;64776;42.636;24.358;2023-03-23T06:05:41;46.58;;;20.77;;
76073;SDS011;64776;42.636;24.358;2023-03-23T06:08:44;42.53;;;19.90;;
76073;SDS011;64776;42.636;24.358;2023-03-23T06:11:44;43.42;;;23.55;;
76073;SDS011;64776;42.636;24.358;2023-03-23T06:14:45;48.05;;;23.85;;
76073;SDS011;64776;42.636;24.358;2023-03-23T06:18:11;62.75;;;32.85;;
76073;SDS011;64776;42.636;24.358;2023-03-23T06:21:12;47.88;;;24.50;;
76073;SDS011;64776;42.636;24.358;2023-03-23T06:24:14;32.63;;;15.60;;
76073;SDS011;64776;42.636;24.358;2023-03-23T06:27:16;34.63;;;19.65;;
76073;SDS011;64776;42.636;24.358;2023-03-23T06:30:17;169.93;;;113.35;;
76073;SDS011;64776;42.636;24.358;2023-03-23T06:33:19;27.17;;;12.15;;
76073;SDS011;64776;42.636;24.358;2023-03-23T06:36:20;35.97;;;14.98;;
76073;SDS011;64776;42.636;24.358;2023-03-23T06:39:23;34.58;;;14.88;;
76073;SDS011;64776;42.636;24.358;2023-03-23T06:42:24;22.20;;;9.25;;
76073;SDS011;64776;42.636;24.358;2023-03-23T06:45:25;41.35;;;18.48;;
76073;SDS011;64776;42.636;24.358;2023-03-23T06:48:26;26.15;;;11.05;;
76073;SDS011;64776;42.636;24.358;2023-03-23T06:51:26;12.07;;;3.92;;
76073;SDS011;64776;42.636;24.358;2023-03-23T06:54:28;11.57;;;5.20;;
76073;SDS011;64776;42.636;24.358;2023-03-23T06:57:29;10.35;;;4.45;;
76073;SDS011;64776;42.636;24.358;2023-03-23T07:00:30;9.85;;;4.10;;
76073;SDS011;64776;42.636;24.358;2023-03-23T07:03:31;15.30;;;6.35;;
76073;SDS011;64776;42.636;24.358;2023-03-23T07:06:32;9.15;;;3.60;;
76073;SDS011;64776;42.636;24.358;2023-03-23T07:09:34;13.80;;;3.55;;
76073;SDS011;64776;42.636;24.358;2023-03-23T07:12:35;12.85;;;4.72;;
76073;SDS011;64776;42.636;24.358;2023-03-23T07:15:38;12.50;;;5.40;;
76073;SDS011;64776;42.636;24.358;2023-03-23T07:18:39;7.28;;;2.78;;
76073;SDS011;64776;42.636;24.358;2023-03-23T07:21:39;12.90;;;5.43;;
76073;SDS011;64776;42.636;24.358;2023-03-23T07:24:42;10.52;;;4.22;;
76073;SDS011;64776;42.636;24.358;2023-03-23T07:27:43;20.88;;;11.48;;
76073;SDS011;64776;42.636;24.358;2023-03-23T07:30:45;14.63;;;6.95;;
76073;SDS011;64776;42.636;24.358;2023-03-23T07:33:45;12.07;;;5.30;;
76073;SDS011;64776;42.636;24.358;2023-03-23T07:36:46;12.43;;;4.20;;
76073;SDS011;64776;42.636;24.358;2023-03-23T07:39:48;11.73;;;8.13;;
76073;SDS011;64776;42.636;24.358;2023-03-23T07:42:51;11.63;;;5.38;;
76073;SDS011;64776;42.636;24.358;2023-03-23T07:45:53;16.80;;;9.98;;
76073;SDS011;64776;42.636;24.358;2023-03-23T07:48:54;16.42;;;7.93;;
76073;SDS011;64776;42.636;24.358;2023-03-23T07:51:55;11.00;;;5.00;;
76073;SDS011;64776;42.636;24.358;2023-03-23T07:54:57;10.50;;;4.55;;
76073;SDS011;64776;42.636;24.358;2023-03-23T07:57:58;6.25;;;2.42;;
76073;SDS011;64776;42.636;24.358;2023-03-23T08:00:59;10.30;;;5.88;;
76073;SDS011;64776;42.636;24.358;2023-03-23T08:03:59;18.17;;;8.25;;
76073;SDS011;64776;42.636;24.358;2023-03-23T08:07:00;23.40;;;9.05;;
76073;SDS011;64776;42.636;24.358;2023-03-23T08:10:27;11.95;;;5.70;;
76073;SDS011;64776;42.636;24.358;2023-03-23T08:13:29;16.67;;;8.65;;
76073;SDS011;64776;42.636;24.358;2023-03-23T08:16:30;13.18;;;4.47;;
76073;SDS011;64776;42.636;24.358;2023-03-23T08:19:31;9.60;;;3.50;;
76073;SDS011;64776;42.636;24.358;2023-03-23T08:22:31;10.35;;;3.25;;
76073;SDS011;64776;42.636;24.358;2023-03-23T08:25:34;9.43;;;3.40;;
76073;SDS011;64776;42.636;24.358;2023-03-23T08:28:36;7.28;;;2.63;;
76073;SDS011;64776;42.636;24.358;2023-03-23T08:31:37;6.32;;;2.17;;
76073;SDS011;64776;42.636;24.358;2023-03-23T08:34:38;10.52;;;3.75;;
76073;SDS011;64776;42.636;24.358;2023-03-23T08:37:39;8.50;;;3.33;;
76073;SDS011;64776;42.636;24.358;2023-03-23T08:40:41;8.77;;;3.35;;
76073;SDS011;64776;42.636;24.358;2023-03-23T08:43:44;12.38;;;4.03;;
76073;SDS011;64776;42.636;24.358;2023-03-23T08:46:45;9.38;;;3.65;;
76073;SDS011;64776;42.636;24.358;2023-03-23T08:49:46;9.10;;;4.20;;
76073;SDS011;64776;42.636;24.358;2023-03-23T08:52:46;8.35;;;3.28;;
76073;SDS011;64776;42.636;24.358;2023-03-23T08:55:49;8.45;;;3.40;;
76073;SDS011;64776;42.636;24.358;2023-03-23T08:58:50;12.38;;;6.15;;
76073;SDS011;64776;42.636;24.358;2023-03-23T09:01:51;7.97;;;2.88;;
76073;SDS011;64776;42.636;24.358;2023-03-23T09:04:52;7.63;;;3.85;;
76073;SDS011;64776;42.636;24.358;2023-03-23T09:07:54;6.70;;;2.80;;
76073;SDS011;64776;42.636;24.358;2023-03-23T09:10:59;6.97;;;2.90;;
76073;SDS011;64776;42.636;24.358;2023-03-23T09:14:00;15.80;;;6.63;;
76073;SDS011;64776;42.636;24.358;2023-03-23T09:17:02;17.70;;;11.48;;
76073;SDS011;64776;42.636;24.358;2023-03-23T09:20:03;9.05;;;4.07;;
76073;SDS011;64776;42.636;24.358;2023-03-23T09:23:05;10.57;;;3.80;;
76073;SDS011;64776;42.636;24.358;2023-03-23T09:26:07;8.35;;;3.67;;
76073;SDS011;64776;42.636;24.358;2023-03-23T09:29:08;6.75;;;2.97;;
76073;SDS011;64776;42.636;24.358;2023-03-23T09:32:09;7.53;;;3.17;;
76073;SDS011;64776;42.636;24.358;2023-03-23T09:35:10;15.25;;;7.80;;
76073;SDS011;64776;42.636;24.358;2023-03-23T09:38:11;9.77;;;4.45;;
76073;SDS011;64776;42.636;24.358;2023-03-23T09:41:15;8.60;;;4.07;;
76073;SDS011;64776;42.636;24.358;2023-03-23T09:44:36;6.85;;;3.15;;
76073;SDS011;64776;42.636;24.358;2023-03-23T09:47:49;10.10;;;3.78;;
76073;SDS011;64776;42.636;24.358;2023-03-23T09:51:06;8.18;;;3.28;;
76073;SDS011;64776;42.636;24.358;2023-03-23T09:54:18;6.65;;;2.67;;
76073;SDS011;64776;42.636;24.358;2023-03-23T09:57:25;12.88;;;6.18;;
76073;SDS011;64776;42.636;24.358;2023-03-23T10:00:30;15.63;;;7.10;;
76073;SDS011;64776;42.636;24.358;2023-03-23T10:03:37;11.15;;;4.68;;
76073;SDS011;64776;42.636;24.358;2023-03-23T10:06:39;10.75;;;4.88;;
76073;SDS011;64776;42.636;24.358;2023-03-23T10:09:40;12.20;;;5.00;;
76073;SDS011;64776;42.636;24.358;2023-03-23T10:12:45;12.60;;;4.93;;
76073;SDS011;64776;42.636;24.358;2023-03-23T10:15:50;9.60;;;3.97;;
76073;SDS011;64776;42.636;24.358;2023-03-23T10:18:53;6.60;;;2.10;;
76073;SDS011;64776;42.636;24.358;2023-03-23T10:22:02;7.47;;;2.10;;
76073;SDS011;64776;42.636;24.358;2023-03-23T10:25:08;6.10;;;2.17;;
76073;SDS011;64776;42.636;24.358;2023-03-23T10:28:18;8.52;;;3.00;;
76073;SDS011;64776;42.636;24.358;2023-03-23T10:31:22;8.20;;;2.75;;
76073;SDS011;64776;42.636;24.358;2023-03-23T10:34:32;7.57;;;2.95;;
76073;SDS011;64776;42.636;24.358;2023-03-23T10:40:43;11.38;;;4.53;;
76073;SDS011;64776;42.636;24.358;2023-03-23T10:43:49;5.72;;;1.92;;
76073;SDS011;64776;42.636;24.358;2023-03-23T10:46:53;6.18;;;2.03;;
76073;SDS011;64776;42.636;24.358;2023-03-23T10:49:59;9.38;;;3.75;;
76073;SDS011;64776;42.636;24.358;2023-03-23T10:53:03;7.63;;;2.78;;
76073;SDS011;64776;42.636;24.358;2023-03-23T10:56:20;23.15;;;9.68;;
76073;SDS011;64776;42.636;24.358;2023-03-23T10:59:27;22.48;;;11.00;;
76073;SDS011;64776;42.636;24.358;2023-03-23T11:02:29;9.40;;;4.47;;
76073;SDS011;64776;42.636;24.358;2023-03-23T11:05:35;13.85;;;7.10;;
76073;SDS011;64776;42.636;24.358;2023-03-23T11:08:46;15.07;;;5.32;;
76073;SDS011;64776;42.636;24.358;2023-03-23T11:11:49;14.63;;;5.07;;
76073;SDS011;64776;42.636;24.358;2023-03-23T11:15:02;8.95;;;2.88;;
76073;SDS011;64776;42.636;24.358;2023-03-23T11:18:04;10.82;;;5.70;;
76073;SDS011;64776;42.636;24.358;2023-03-23T11:21:07;8.80;;;4.55;;
76073;SDS011;64776;42.636;24.358;2023-03-23T11:24:11;7.63;;;3.22;;
76073;SDS011;64776;42.636;24.358;2023-03-23T11:27:13;8.55;;;3.05;;
76073;SDS011;64776;42.636;24.358;2023-03-23T11:30:20;7.63;;;2.80;;
76073;SDS011;64776;42.636;24.358;2023-03-23T11:33:24;12.43;;;4.90;;
76073;SDS011;64776;42.636;24.358;2023-03-23T11:36:29;6.63;;;2.42;;
76073;SDS011;64776;42.636;24.358;2023-03-23T11:39:32;36.58;;;15.45;;
76073;SDS011;64776;42.636;24.358;2023-03-23T11:42:36;37.30;;;15.50;;
76073;SDS011;64776;42.636;24.358;2023-03-23T11:45:41;6.53;;;2.38;;
76073;SDS011;64776;42.636;24.358;2023-03-23T11:48:51;17.25;;;4.22;;
76073;SDS011;64776;42.636;24.358;2023-03-23T11:51:59;19.40;;;8.45;;
76073;SDS011;64776;42.636;24.358;2023-03-23T11:55:08;5.45;;;1.67;;
76073;SDS011;64776;42.636;24.358;2023-03-23T11:58:13;10.18;;;4.63;;
76073;SDS011;64776;42.636;24.358;2023-03-23T12:01:21;127.03;;;41.97;;
76073;SDS011;64776;42.636;24.358;2023-03-23T12:04:42;7.55;;;3.60;;
76073;SDS011;64776;42.636;24.358;2023-03-23T12:08:00;9.07;;;2.50;;
76073;SDS011;64776;42.636;24.358;2023-03-23T12:11:11;9.93;;;3.95;;
76073;SDS011;64776;42.636;24.358;2023-03-23T12:14:20;10.30;;;3.42;;
76073;SDS011;64776;42.636;24.358;2023-03-23T12:17:31;10.13;;;4.05;;
76073;SDS011;64776;42.636;24.358;2023-03-23T12:20:42;8.63;;;3.97;;
76073;SDS011;64776;42.636;24.358;2023-03-23T12:23:58;16.90;;;8.10;;
76073;SDS011;64776;42.636;24.358;2023-03-23T12:27:08;9.73;;;3.85;;
76073;SDS011;64776;42.636;24.358;2023-03-23T12:30:25;8.75;;;4.05;;
76073;SDS011;64776;42.636;24.358;2023-03-23T12:33:36;12.02;;;6.03;;
76073;SDS011;64776;42.636;24.358;2023-03-23T12:36:49;10.00;;;3.55;;
76073;SDS011;64776;42.636;24.358;2023-03-23T12:43:38;6.35;;;2.30;;
76073;SDS011;64776;42.636;24.358;2023-03-23T12:46:50;13.00;;;5.50;;
76073;SDS011;64776;42.636;24.358;2023-03-23T12:50:06;11.95;;;3.90;;
76073;SDS011;64776;42.636;24.358;2023-03-23T12:53:14;8.40;;;3.45;;
76073;SDS011;64776;42.636;24.358;2023-03-23T12:56:22;13.32;;;4.95;;
76073;SDS011;64776;42.636;24.358;2023-03-23T12:59:29;11.52;;;5.05;;
76073;SDS011;64776;42.636;24.358;2023-03-23T13:02:37;8.88;;;3.53;;
76073;SDS011;64776;42.636;24.358;2023-03-23T13:05:44;22.65;;;10.38;;
76073;SDS011;64776;42.636;24.358;2023-03-23T13:08:50;9.45;;;3.67;;
76073;SDS011;64776;42.636;24.358;2023-03-23T13:11:56;9.55;;;3.85;;
76073;SDS011;64776;42.636;24.358;2023-03-23T13:15:01;8.77;;;3.47;;
76073;SDS011;64776;42.636;24.358;2023-03-23T13:18:08;12.45;;;4.28;;
76073;SDS011;64776;42.636;24.358;2023-03-23T13:21:19;8.02;;;2.33;;
76073;SDS011;64776;42.636;24.358;2023-03-23T13:24:26;5.82;;;2.40;;
76073;SDS011;64776;42.636;24.358;2023-03-23T13:27:29;11.27;;;3.47;;
76073;SDS011;64776;42.636;24.358;2023-03-23T13:30:32;9.98;;;4.13;;
76073;SDS011;64776;42.636;24.358;2023-03-23T13:33:33;24.45;;;10.10;;
76073;SDS011;64776;42.636;24.358;2023-03-23T13:36:39;11.52;;;4.72;;
76073;SDS011;64776;42.636;24.358;2023-03-23T13:39:48;15.70;;;6.43;;
76073;SDS011;64776;42.636;24.358;2023-03-23T13:42:52;11.50;;;5.32;;
76073;SDS011;64776;42.636;24.358;2023-03-23T13:45:54;21.77;;;10.15;;
76073;SDS011;64776;42.636;24.358;2023-03-23T13:49:17;9.48;;;4.15;;
76073;SDS011;64776;42.636;24.358;2023-03-23T13:52:23;8.60;;;3.67;;
76073;SDS011;64776;42.636;24.358;2023-03-23T13:55:39;9.55;;;4.68;;
76073;SDS011;64776;42.636;24.358;2023-03-23T13:58:45;13.73;;;6.18;;
76073;SDS011;64776;42.636;24.358;2023-03-23T14:01:47;12.23;;;4.90;;
76073;SDS011;64776;42.636;24.358;2023-03-23T14:04:48;7.32;;;2.95;;
76073;SDS011;64776;42.636;24.358;2023-03-23T14:07:56;9.57;;;4.38;;
76073;SDS011;64776;42.636;24.358;2023-03-23T14:10:58;9.02;;;3.70;;
76073;SDS011;64776;42.636;24.358;2023-03-23T14:14:01;10.38;;;4.53;;
76073;SDS011;64776;42.636;24.358;2023-03-23T14:17:10;8.23;;;3.08;;
76073;SDS011;64776;42.636;24.358;2023-03-23T14:20:17;16.83;;;6.95;;
76073;SDS011;64776;42.636;24.358;2023-03-23T14:23:25;7.32;;;2.75;;
76073;SDS011;64776;42.636;24.358;2023-03-23T14:26:26;7.70;;;2.53;;
76073;SDS011;64776;42.636;24.358;2023-03-23T14:29:27;6.82;;;3.33;;
76073;SDS011;64776;42.636;24.358;2023-03-23T14:32:30;7.98;;;3.13;;
76073;SDS011;64776;42.636;24.358;2023-03-23T14:35:32;10.82;;;4.97;;
76073;SDS011;64776;42.636;24.358;2023-03-23T14:38:36;14.48;;;6.00;;
76073;SDS011;64776;42.636;24.358;2023-03-23T14:41:37;28.92;;;14.90;;
76073;SDS011;64776;42.636;24.358;2023-03-23T14:44:39;17.25;;;7.30;;
76073;SDS011;64776;42.636;24.358;2023-03-23T14:47:44;19.52;;;11.98;;
76073;SDS011;64776;42.636;24.358;2023-03-23T14:53:53;79.30;;;25.45;;
76073;SDS011;64776;42.636;24.358;2023-03-23T14:56:54;9.20;;;3.35;;
76073;SDS011;64776;42.636;24.358;2023-03-23T14:59:56;15.13;;;5.70;;
76073;SDS011;64776;42.636;24.358;2023-03-23T15:02:57;7.82;;;2.83;;
76073;SDS011;64776;42.636;24.358;2023-03-23T15:06:03;13.65;;;4.60;;
76073;SDS011;64776;42.636;24.358;2023-03-23T15:09:09;21.08;;;10.90;;
76073;SDS011;64776;42.636;24.358;2023-03-23T15:12:18;61.03;;;32.33;;
76073;SDS011;64776;42.636;24.358;2023-03-23T15:15:24;94.97;;;44.90;;
76073;SDS011;64776;42.636;24.358;2023-03-23T15:18:29;66.47;;;29.48;;
76073;SDS011;64776;42.636;24.358;2023-03-23T15:21:32;49.58;;;22.25;;
76073;SDS011;64776;42.636;24.358;2023-03-23T15:24:38;39.85;;;15.25;;
76073;SDS011;64776;42.636;24.358;2023-03-23T15:27:40;27.60;;;12.57;;
76073;SDS011;64776;42.636;24.358;2023-03-23T15:30:46;24.52;;;11.88;;
76073;SDS011;64776;42.636;24.358;2023-03-23T15:33:49;31.80;;;15.85;;
76073;SDS011;64776;42.636;24.358;2023-03-23T15:36:58;50.85;;;22.45;;
76073;SDS011;64776;42.636;24.358;2023-03-23T15:40:01;35.50;;;17.05;;
76073;SDS011;64776;42.636;24.358;2023-03-23T15:43:07;45.97;;;19.00;;
76073;SDS011;64776;42.636;24.358;2023-03-23T15:46:21;31.70;;;13.57;;
76073;SDS011;64776;42.636;24.358;2023-03-23T15:49:23;41.53;;;20.35;;
76073;SDS011;64776;42.636;24.358;2023-03-23T15:52:24;65.05;;;32.15;;
76073;SDS011;64776;42.636;24.358;2023-03-23T15:55:28;53.80;;;25.90;;
76073;SDS011;64776;42.636;24.358;2023-03-23T15:58:30;56.65;;;26.58;;
76073;SDS011;64776;42.636;24.358;2023-03-23T16:01:31;38.65;;;20.33;;
76073;SDS011;64776;42.636;24.358;2023-03-23T16:04:32;128.50;;;61.50;;
76073;SDS011;64776;42.636;24.358;2023-03-23T16:07:33;68.65;;;33.50;;
76073;SDS011;64776;42.636;24.358;2023-03-23T16:10:35;92.43;;;43.58;;
76073;SDS011;64776;42.636;24.358;2023-03-23T16:13:36;58.38;;;28.88;;
76073;SDS011;64776;42.636;24.358;2023-03-23T16:16:38;30.50;;;16.05;;
76073;SDS011;64776;42.636;24.358;2023-03-23T16:19:41;35.45;;;19.90;;
76073;SDS011;64776;42.636;24.358;2023-03-23T16:22:42;40.20;;;18.08;;
76073;SDS011;64776;42.636;24.358;2023-03-23T16:25:44;33.15;;;15.57;;
76073;SDS011;64776;42.636;24.358;2023-03-23T16:28:45;22.08;;;10.60;;
76073;SDS011;64776;42.636;24.358;2023-03-23T16:31:46;21.27;;;11.40;;
76073;SDS011;64776;42.636;24.358;2023-03-23T16:34:46;28.15;;;13.27;;
76073;SDS011;64776;42.636;24.358;2023-03-23T16:37:48;34.72;;;18.67;;
76073;SDS011;64776;42.636;24.358;2023-03-23T16:40:52;46.17;;;25.83;;
76073;SDS011;64776;42.636;24.358;2023-03-23T16:43:53;53.15;;;25.38;;
76073;SDS011;64776;42.636;24.358;2023-03-23T16:46:53;48.90;;;19.40;;
76073;SDS011;64776;42.636;24.358;2023-03-23T16:49:54;44.30;;;19.75;;
76073;SDS011;64776;42.636;24.358;2023-03-23T16:52:55;48.08;;;23.67;;
76073;SDS011;64776;42.636;24.358;2023-03-23T16:55:57;46.85;;;23.98;;
76073;SDS011;64776;42.636;24.358;2023-03-23T16:58:59;45.65;;;21.85;;
76073;SDS011;64776;42.636;24.358;2023-03-23T17:02:00;46.78;;;22.23;;
76073;SDS011;64776;42.636;24.358;2023-03-23T17:05:26;55.13;;;27.25;;
76073;SDS011;64776;42.636;24.358;2023-03-23T17:08:29;43.03;;;22.58;;
76073;SDS011;64776;42.636;24.358;2023-03-23T17:11:31;43.40;;;21.45;;
76073;SDS011;64776;42.636;24.358;2023-03-23T17:14:32;61.55;;;30.73;;
76073;SDS011;64776;42.636;24.358;2023-03-23T17:17:33;76.82;;;36.72;;
76073;SDS011;64776;42.636;24.358;2023-03-23T17:20:34;76.03;;;36.72;;
76073;SDS011;64776;42.636;24.358;2023-03-23T17:23:35;82.63;;;40.45;;
76073;SDS011;64776;42.636;24.358;2023-03-23T17:26:37;66.95;;;35.10;;
76073;SDS011;64776;42.636;24.358;2023-03-23T17:29:38;67.43;;;34.88;;
76073;SDS011;64776;42.636;24.358;2023-03-23T17:32:39;39.72;;;18.60;;
76073;SDS011;64776;42.636;24.358;2023-03-23T17:35:40;41.92;;;17.77;;
76073;SDS011;64776;42.636;24.358;2023-03-23T17:38:41;49.42;;;22.10;;
76073;SDS011;64776;42.636;24.358;2023-03-23T17:41:43;54.30;;;25.58;;
76073;SDS011;64776;42.636;24.358;2023-03-23T17:44:44;61.38;;;29.55;;
76073;SDS011;64776;42.636;24.358;2023-03-23T17:47:45;58.50;;;29.95;;
76073;SDS011;64776;42.636;24.358;2023-03-23T17:50:46;42.38;;;22.20;;
76073;SDS011;64776;42.636;24.358;2023-03-23T17:53:47;45.35;;;28.75;;
76073;SDS011;64776;42.636;24.358;2023-03-23T17:56:49;44.90;;;22.90;;
76073;SDS011;64776;42.636;24.358;2023-03-23T17:59:50;71.05;;;37.72;;
76073;SDS011;64776;42.636;24.358;2023-03-23T18:02:50;45.90;;;22.30;;
76073;SDS011;64776;42.636;24.358;2023-03-23T18:05:56;40.13;;;17.90;;
76073;SDS011;64776;42.636;24.358;2023-03-23T18:08:59;32.05;;;14.80;;